• Join FlightAware (Why Join?)
  • Login
  • US Flag 
10:14AM EDT


 

Airport Tracker/Info


-or-


 

Live Flight TrackerFlight Track Log ✈ SWA3943 ✈ 10-Apr-2013 ✈ KPHL - KMDW

Flight Track Log - Related Links

Times and Time Zones

All times are in EDT time to prevent confusion due to time zone crossing. See the SWA3943 flight status page for this flight to view local times or setup timezone preferences in your user account.

Time Position Orientation Groundspeed Altitude Reporting Facility
EDT Latitude Longitude Course Direction KTS MPH feet Rate Location/Type
10:05AM 39.8603 -75.2783 254° West 176 203 800  Level FAA TRACON SMA TRACON (SMA)
10:05AM 39.8569 -75.2939 254° West 157 181 1,400 1,800 Climbing FAA TRACON SMA TRACON (SMA)
10:05AM 39.8514 -75.3178 253° West 184 212 2,000 2,100 Climbing FAA TRACON SMA TRACON (SMA)
10:06AM 39.8461 -75.3381 251° West 192 221 2,800 2,520 Climbing FAA TRACON SMA TRACON (SMA)
10:06AM 39.8408 -75.3592 252° West 196 226 3,700 2,220 Climbing FAA TRACON SMA TRACON (SMA)
10:06AM 39.8347 -75.3886 255° West 230 265 4,300 2,100 Climbing FAA TRACON SMA TRACON (SMA)
10:07AM 39.8386 -75.4133 282° West 233 268 5,100 2,520 Climbing FAA TRACON SMA TRACON (SMA)
10:07AM 39.8539 -75.4322 316° Northwest 241 277 6,000 3,300 Climbing FAA TRACON SMA TRACON (SMA)
10:07AM 39.8739 -75.4550 319° Northwest 248 285 7,300 3,300 Climbing FAA TRACON SMA TRACON (SMA)
10:08AM 39.8819 -75.4792 293° West 250 288 8,200 3,000 Climbing FAA TRACON SMA TRACON (SMA)
10:08AM 39.8867 -75.5094 281° West 265 305 9,300 2,700 Climbing FAA TRACON SMA TRACON (SMA)
10:08AM 39.8869 -75.5458 271° West 258 297 10,000 1,620 Climbing FAA TRACON SMA TRACON (SMA)
10:09AM 39.8883 -75.5747 274° West 261 300 10,400 1,200 Climbing FAA TRACON SMA TRACON (SMA)
10:09AM 39.8889 -75.6072 271° West 299 344 10,800 2,220 Climbing FAA TRACON SMA TRACON (SMA)
10:09AM 39.8911 -75.6492 274° West 313 360 11,900 3,120 Climbing FAA TRACON SMA TRACON (SMA)
10:10AM 39.8931 -75.6858 274° West 319 367 12,900 3,300 Climbing FAA TRACON SMA TRACON (SMA)
10:10AM 39.8939 -75.7211 272° West 322 371 14,100 3,720 Climbing FAA TRACON SMA TRACON (SMA)
10:10AM 39.8956 -75.7678 273° West 326 375 15,400 3,180 Climbing FAA TRACON SMA TRACON (SMA)
10:11AM 39.8972 -75.8047 273° West 330 380 16,400 3,060 Climbing FAA TRACON SMA TRACON (SMA)
10:11AM 39.8989 -75.8497 273° West 334 384 17,600 2,580 Climbing FAA TRACON SMA TRACON (SMA)
10:11AM 39.9003 -75.8683 276° West 336 387 18,000 600 Climbing FAA TRACON SMA TRACON (SMA)
10:12AM 39.9003 -75.8683 229° Southwest 336 387 18,000 2,340 Level FAA TRACON SMA TRACON (SMA)
10:14AM 39.9103 -76.1808 272° West 369 425 23,500 2,580 Climbing New York Center
10:15AM 39.8706 -76.3158 249° West 385 443 25,700 2,040 Climbing New York Center
10:15AM 39.8253 -76.4478 246° West 413 475 27,300 1,680 Climbing Washington Center
10:16AM 39.7889 -76.5769 250° West 406 467 28,800 1,860 Climbing Washington Center
10:17AM 39.7458 -76.7222 249° West 424 488 31,100 2,340 Climbing Washington Center
10:18AM 39.6942 -76.8833 247° West 436 502 33,500 2,040 Climbing Washington Center
10:19AM 39.6575 -77.0039 248° West 430 495 35,200 1,200 Climbing Washington Center
10:20AM 39.6097 -77.1539 248° West 419 482 36,000 360 Climbing Washington Center
10:21AM 39.5706 -77.2767 248° West 412 474 36,000  Level Washington Center
10:22AM 39.5228 -77.4236 247° West 411 473 36,000  Level Washington Center
10:23AM 39.4833 -77.5464 247° West 411 473 36,000  Level Washington Center
10:24AM 39.4369 -77.6928 248° West 411 473 36,000  Level Washington Center
10:25AM 39.3975 -77.8100 247° West 411 473 36,000  Level Washington Center
10:26AM 39.3486 -77.9614 247° West 411 473 36,000  Level Washington Center
10:27AM 39.2897 -78.0881 239° Southwest 419 482 36,000  Level Washington Center
10:28AM 39.2436 -78.2044 243° Southwest 414 476 36,000  Level Washington Center
10:29AM 39.1883 -78.3444 243° Southwest 405 466 36,000  Level Washington Center
10:30AM 39.1397 -78.4606 242° Southwest 405 466 36,000  Level Washington Center
10:31AM 39.0842 -78.6028 243° Southwest 405 466 36,000  Level Washington Center
10:32AM 39.0417 -78.7211 245° Southwest 405 466 36,000  Level Washington Center
10:33AM 38.9903 -78.8497 243° Southwest 405 466 36,000  Level Washington Center
10:34AM 38.9325 -78.9753 239° Southwest 405 466 36,000  Level Washington Center
10:35AM 38.8722 -79.1167 241° Southwest 410 472 36,000  Level Washington Center
10:36AM 38.8347 -79.2561 251° West 410 472 36,000  Level Washington Center
10:37AM 38.8094 -79.3933 257° West 410 472 36,000  Level Washington Center
10:38AM 38.7844 -79.5278 257° West 395 455 36,000  Level Washington Center
10:40AM 38.7375 -79.7700 256° West 407 468 36,000  Level Indianapolis Center
10:41AM 38.7114 -79.9111 257° West 406 467 36,000  Level Indianapolis Center
10:42AM 38.6789 -80.0803 256° West 407 468 36,000  Level Indianapolis Center
10:43AM 38.6528 -80.2206 257° West 407 468 36,000  Level Indianapolis Center
10:44AM 38.6256 -80.3608 256° West 405 466 36,000  Level Indianapolis Center
10:45AM 38.6006 -80.5014 257° West 405 466 36,000  Level Indianapolis Center
10:46AM 38.5725 -80.6406 256° West 404 465 36,000  Level Indianapolis Center
10:47AM 38.5458 -80.7811 256° West 405 466 36,000  Level Indianapolis Center
10:49AM 38.5189 -80.9211 256° West 405 466 36,000  Level Indianapolis Center
10:50AM 38.4914 -81.0608 256° West 405 466 36,000  Level Indianapolis Center
10:51AM 38.4636 -81.1992 256° West 402 463 36,000  Level Indianapolis Center
10:52AM 38.4358 -81.3397 256° West 403 464 36,000  Level Indianapolis Center
10:53AM 38.4028 -81.5075 256° West 401 461 36,000  Level Indianapolis Center
10:54AM 38.3750 -81.6475 256° West 404 465 36,000  Level Indianapolis Center
10:55AM 38.3483 -81.7869 256° West 402 463 36,000  Level Indianapolis Center
10:56AM 38.3425 -81.9311 267° West 407 468 36,000  Level Indianapolis Center
10:57AM 38.3342 -82.0742 266° West 404 465 36,000  Level Indianapolis Center
10:58AM 38.3278 -82.2175 267° West 405 466 36,000  Level Indianapolis Center
10:59AM 38.3203 -82.3608 266° West 405 466 36,000  Level Indianapolis Center
11:00AM 38.3119 -82.5053 266° West 403 464 36,000  Level Indianapolis Center
11:01AM 38.3031 -82.6758 266° West 413 475 36,000  Level Indianapolis Center
11:02AM 38.2950 -82.8186 266° West 409 471 36,000  Level Indianapolis Center
11:03AM 38.2861 -82.9656 266° West 414 476 36,000  Level Indianapolis Center
11:04AM 38.2775 -83.1114 266° West 414 476 36,000  Level Indianapolis Center
11:05AM 38.2767 -83.2547 270° West 417 480 36,000  Level Indianapolis Center
11:06AM 38.3508 -83.3606 312° West 409 471 36,000  Level Indianapolis Center
11:07AM 38.4358 -83.4639 316° Northwest 416 479 36,000  Level Indianapolis Center
11:08AM 38.5344 -83.5806 317° Northwest 415 478 36,000  Level Indianapolis Center
11:09AM 38.6200 -83.6808 318° Northwest 415 478 36,000  Level Indianapolis Center
11:10AM 38.7075 -83.7858 317° Northwest 418 481 36,000  Level Indianapolis Center
11:11AM 38.7942 -83.8883 317° Northwest 419 482 36,000  Level Indianapolis Center
11:12AM 38.8806 -83.9931 317° Northwest 420 483 36,000  Level Indianapolis Center
11:13AM 38.9669 -84.1000 316° Northwest 424 488 36,000 -540 Level Indianapolis Center
11:14AM 39.0542 -84.2056 317° Northwest 424 488 35,000 -960 Descending Indianapolis Center
11:15AM 39.1403 -84.3106 317° Northwest 422 486 34,100 -1,020 Descending Indianapolis Center
11:16AM 39.2264 -84.4158 317° Northwest 422 486 33,000 -1,020 Descending Indianapolis Center
11:17AM 39.3078 -84.5222 315° West 415 478 32,100 -960 Descending Indianapolis Center
11:18AM 39.3794 -84.6331 310° West 400 460 31,100 -1,260 Descending Indianapolis Center
11:19AM 39.4558 -84.7386 313° West 398 458 29,600 -1,320 Descending Indianapolis Center
11:20AM 39.5467 -84.8589 314° West 396 456 28,400 -780 Descending Indianapolis Center
11:21AM 39.6264 -84.9550 317° Northwest 389 448 28,000 -240 Descending Indianapolis Center
11:22AM 39.7081 -85.0506 318° Northwest 389 448 28,000  Level Indianapolis Center
11:23AM 39.7872 -85.1472 317° Northwest 387 445 28,000  Level Indianapolis Center
11:25AM 39.8675 -85.2439 317° Northwest 387 445 28,000  Level Indianapolis Center
11:26AM 39.9511 -85.3456 317° Northwest 402 463 28,000 -540 Level Indianapolis Center
11:27AM 40.0333 -85.4478 316° Northwest 405 466 27,000 -1,260 Descending Indianapolis Center
11:28AM 40.1183 -85.5500 317° Northwest 408 470 25,400 -1,500 Descending Indianapolis Center
11:29AM 40.2011 -85.6508 317° Northwest 406 467 24,000 -720 Descending Indianapolis Center
11:30AM 40.2964 -85.7567 320° Northwest 397 457 24,000 -480 Level Chicago Center
11:31AM 40.3900 -85.8369 327° Northwest 394 453 23,100 -960 Descending Chicago Center
11:32AM 40.4747 -85.9147 325° Northwest 384 442 22,100 -1,020 Descending Chicago Center
11:33AM 40.5594 -85.9894 326° Northwest 374 430 21,100 -1,020 Descending Chicago Center
11:34AM 40.6414 -86.0628 326° Northwest 361 415 20,100 -1,080 Descending Chicago Center
11:35AM 40.7239 -86.1378 325° Northwest 359 413 18,900 -1,800 Descending Chicago Center
11:36AM 40.8192 -86.2231 326° Northwest 350 403 16,500 -2,160 Descending Chicago Center
11:37AM 40.8969 -86.2944 325° Northwest 341 392 14,500 -1,860 Descending Chicago Center
11:38AM 40.9719 -86.3622 326° Northwest 331 381 12,800 -1,740 Descending Chicago Center
11:39AM 41.0439 -86.4289 325° Northwest 319 367 11,000 -960 Descending Chicago Center
11:40AM 41.0953 -86.5047 312° West 273 314 10,900 -540 Descending Chicago Center
11:41AM 41.1436 -86.5803 310° West 269 310 10,000 -480 Descending Chicago Center
11:42AM 41.1917 -86.6533 311° West 264 304 10,000  Level Chicago Center
11:43AM 41.2461 -86.7361 311° West 262 302 10,000  Level Chicago Center
11:44AM 41.2922 -86.8097 310° West 261 300 10,000  Level Chicago Center
11:45AM 41.3397 -86.8831 311° West 263 303 10,000 -60 Level Chicago Center
11:46AM 41.3869 -86.9561 311° West 263 303 9,900 -780 Descending Chicago Center
11:47AM 41.4336 -87.0297 310° West 262 302 8,500 -1,440 Descending Chicago Center
11:48AM 41.4797 -87.1008 311° West 257 296 7,000 -1,440 Descending Chicago Center
11:49AM 41.5167 -87.1667 307° West 249 287 6,000 -600 Descending Chicago TRACON
11:50AM 41.5167 -87.2667 270° West 236 272 6,000 -480 Level Chicago TRACON
11:51AM 41.5167 -87.3500 270° West 234 269 5,100 -960 Descending Chicago TRACON
11:52AM 41.5333 -87.4333 285° West 238 274 4,000 -600 Descending Chicago TRACON
11:53AM 41.5500 -87.5167 285° West 235 270 4,000  Level Chicago TRACON
11:53AM 41.5514 -87.5353 276° West 237 273 4,000  Level Chicago Center
11:54AM 41.5583 -87.6206 276° West 235 270 4,000  Level Chicago Center
11:55AM 41.5683 -87.7225 278° West 234 269 4,000 -420 Level Chicago Center
11:56AM 41.5750 -87.7994 277° West 225 259 3,200 -540 Descending Chicago Center
11:57AM 41.5822 -87.8706 278° West 210 242 3,000 -120 Descending Chicago Center
11:58AM 41.6144 -87.9147 314° West 186 214 3,000  Level Chicago Center
11:59AM 41.6642 -87.9022 11° North 184 212 3,000  Level Chicago Center
12:00PM 41.7000 -87.8667 37° Northeast 190 219 3,000 -600 Level Chicago TRACON
12:01PM 41.7333 -87.8167 48° Northeast 182 209 2,100 -900 Descending Chicago TRACON
12:02PM 41.7500 -87.7833 56° Northeast 121 139 1,300 -840 Descending Chicago TRACON
12:05PM 41.7833 -87.7500 334° Northwest  Level FlightAware Approximate